createdAt,value
2022-09-15T00:22:12.334Z,0.80
2022-09-15T00:31:45.306Z,0.90
2022-09-15T00:36:17.953Z,0.90
2022-09-15T00:40:46.662Z,0.70
2022-09-15T00:49:41.836Z,0.60
2022-09-15T00:58:19.075Z,0.80
2022-09-15T01:07:03.999Z,0.80
2022-09-15T01:15:58.827Z,0.80
2022-09-15T01:20:37.643Z,1.10
2022-09-15T01:35:18.975Z,0.93
2022-09-15T01:49:54.450Z,1.90
2022-09-15T02:49:46.568Z,1.30
2022-09-15T04:07:42.765Z,0.90
2022-09-15T04:25:47.411Z,0.83
2022-09-15T06:13:55.709Z,0.90
2022-09-15T06:40:03.408Z,0.90
2022-09-15T06:49:29.227Z,0.93
2022-09-15T06:53:33.702Z,1.00
2022-09-15T08:09:25.087Z,0.60
2022-09-15T08:18:11.990Z,0.70
2022-09-15T08:22:16.895Z,0.77
2022-09-15T08:26:22.146Z,0.70
2022-09-15T08:34:50.863Z,0.70
2022-09-15T08:43:50.527Z,1.00
2022-09-15T09:02:23.913Z,0.83
2022-09-15T09:07:26.106Z,0.80
2022-09-15T09:11:38.440Z,1.00
2022-09-15T09:16:07.418Z,1.30
2022-09-15T09:20:40.531Z,1.43
2022-09-15T09:24:49.467Z,1.20
2022-09-15T09:29:08.131Z,1.60
2022-09-15T09:33:47.921Z,1.67
2022-09-15T09:55:57.424Z,0.70
2022-09-15T10:09:00.690Z,0.40
2022-09-15T10:13:05.537Z,0.43
2022-09-15T10:17:13.808Z,0.20
2022-09-15T10:21:26.867Z,0.20
2022-09-15T10:25:55.063Z,0.30
2022-09-15T10:30:21.769Z,0.30
2022-09-15T10:34:38.847Z,0.30
2022-09-15T10:38:45.963Z,0.20
2022-09-15T10:48:33.895Z,0.20
2022-09-15T10:53:13.537Z,0.40
2022-09-15T10:57:39.153Z,0.37
2022-09-15T11:06:57.678Z,0.50
2022-09-15T11:11:40.814Z,0.40
2022-09-15T11:25:25.721Z,0.47
2022-09-15T11:38:53.452Z,0.50
2022-09-15T11:48:08.521Z,0.70
2022-09-15T11:57:01.965Z,1.00
2022-09-15T12:05:41.588Z,1.10
2022-09-15T12:09:50.484Z,1.60
2022-09-15T12:14:00.646Z,1.90
2022-09-15T12:18:42.722Z,1.50
2022-09-15T12:27:52.834Z,1.40
2022-09-15T12:37:05.717Z,1.50
2022-09-15T12:54:52.235Z,1.10
2022-09-15T13:04:02.799Z,0.80
2022-09-15T13:08:16.880Z,0.73
2022-09-15T13:12:21.700Z,0.70
2022-09-15T13:21:12.660Z,0.90
2022-09-15T13:29:50.541Z,0.40
2022-09-15T13:38:49.637Z,0.60
2022-09-15T13:43:25.924Z,0.53
2022-09-15T13:48:04.033Z,0.50
2022-09-15T13:52:31.152Z,0.80
2022-09-15T13:56:51.191Z,0.40
2022-09-15T14:01:01.335Z,0.40
2022-09-15T14:05:03.530Z,0.23
2022-09-15T14:09:16.642Z,0.20
2022-09-15T14:13:21.210Z,0.20
2022-09-15T14:17:27.001Z,0.20
2022-09-15T14:21:34.894Z,0.17
2022-09-15T14:25:39.929Z,0.20
2022-09-15T14:29:44.659Z,0.20
2022-09-15T14:33:49.686Z,0.30
2022-09-15T14:37:58.816Z,0.30
2022-09-15T14:42:23.020Z,0.20
2022-09-15T14:46:37.278Z,0.30
2022-09-15T14:50:39.557Z,0.30
2022-09-15T14:54:41.775Z,0.37
2022-09-15T14:59:09.917Z,0.23
2022-09-15T15:03:32.507Z,0.20
2022-09-15T15:07:38.224Z,0.20
2022-09-15T15:11:42.393Z,0.50
2022-09-15T15:15:47.320Z,0.20
2022-09-15T15:19:58.551Z,0.20
2022-09-15T15:24:18.992Z,0.30
2022-09-15T15:28:36.399Z,0.20
2022-09-15T15:32:53.280Z,0.20
2022-09-15T15:37:05.252Z,0.30
2022-09-15T15:41:10.718Z,0.60
2022-09-15T15:58:28.274Z,0.20
2022-09-15T16:02:33.650Z,0.30
2022-09-15T16:06:38.460Z,0.37
2022-09-15T16:10:45.502Z,0.30
2022-09-15T16:14:47.873Z,0.60
2022-09-15T16:18:51.790Z,0.30
2022-09-15T16:23:00.392Z,0.50
2022-09-15T16:27:05.443Z,0.50
2022-09-15T16:31:13.878Z,0.37
2022-09-15T16:35:43.714Z,0.57
2022-09-15T16:39:47.700Z,0.30
2022-09-15T16:43:50.652Z,0.30
2022-09-15T16:47:55.069Z,0.50
2022-09-15T16:51:58.292Z,0.40
2022-09-15T16:56:02.566Z,0.30
2022-09-15T17:00:18.138Z,0.50
2022-09-15T17:04:23.028Z,0.40
2022-09-15T17:08:32.672Z,0.47
2022-09-15T17:12:36.382Z,0.30
2022-09-15T17:16:40.017Z,0.23
2022-09-15T17:20:46.102Z,0.40
2022-09-15T17:24:48.427Z,0.30
2022-09-15T17:28:53.180Z,0.30
2022-09-15T17:33:06.986Z,0.30
2022-09-15T17:37:09.723Z,0.20
2022-09-15T17:41:20.111Z,0.47
2022-09-15T17:45:27.442Z,0.30
2022-09-15T17:49:30.390Z,0.30
2022-09-15T17:53:34.361Z,0.33
2022-09-15T17:57:37.608Z,0.50
2022-09-15T18:01:41.526Z,0.90
2022-09-15T18:05:44.832Z,0.50
2022-09-15T18:09:49.820Z,0.70
2022-09-15T18:13:52.909Z,0.57
2022-09-15T18:18:03.322Z,0.57
2022-09-15T18:22:05.681Z,0.50
2022-09-15T18:26:07.802Z,0.60
2022-09-15T18:30:14.019Z,0.70
2022-09-15T18:34:16.433Z,0.60
2022-09-15T18:38:20.635Z,0.60
2022-09-15T18:42:23.622Z,0.50
2022-09-15T18:46:29.551Z,0.87
2022-09-15T18:50:34.048Z,0.50
2022-09-15T18:54:36.705Z,0.70
2022-09-15T18:58:39.110Z,0.30
2022-09-15T19:02:42.188Z,0.40
2022-09-15T19:06:45.549Z,0.50
2022-09-15T19:10:59.270Z,0.40
2022-09-15T19:15:03.279Z,0.50
2022-09-15T19:19:07.002Z,0.40
2022-09-15T19:23:12.003Z,0.63
2022-09-15T19:27:18.542Z,0.80
2022-09-15T19:31:21.121Z,0.77
2022-09-15T19:35:25.597Z,0.60
2022-09-15T19:39:29.245Z,0.57
2022-09-15T19:43:33.993Z,0.90
2022-09-15T19:47:40.370Z,0.90
2022-09-15T19:51:47.701Z,0.60
2022-09-15T19:55:54.141Z,0.60
2022-09-15T19:59:57.523Z,0.80
2022-09-15T20:04:02.164Z,0.70
2022-09-15T20:08:06.329Z,1.00
2022-09-15T20:12:14.480Z,1.60
2022-09-15T20:16:20.831Z,2.57
2022-09-15T20:20:35.563Z,2.33
2022-09-15T20:29:08.687Z,2.13
2022-09-15T20:55:52.681Z,2.53
2022-09-15T21:00:12.783Z,2.60
2022-09-15T21:40:48.104Z,3.83
2022-09-15T22:12:04.125Z,3.20
2022-09-15T23:20:07.419Z,1.67
2022-09-15T23:47:07.746Z,1.80
